Time;durP1;ratioP1;P1;durP2;ratioP2;P2;SDS_P1;SDS_P2;PMS_P1;PMS_P2;Temp;Humidity;BMP_temperature;BMP_pressure;BME280_temperature;BME280_humidity;BME280_pressure;Samples;Min_cycle;Max_cycle;Signal;HPM_P1;HPM_P2
2022/03/26 00:00:06;;;;;;;29.67;14.52;;;12.70;50.70;;;;;;5135026;28;20015;-66
2022/03/26 00:02:31;;;;;;;30.23;15.45;;;12.60;50.60;;;;;;5134931;28;20048;-65
2022/03/26 00:04:57;;;;;;;29.25;14.88;;;12.60;51.00;;;;;;5134915;28;20039;-65
2022/03/26 00:07:23;;;;;;;29.73;14.23;;;12.40;51.30;;;;;;5134870;28;20047;-65
2022/03/26 00:09:48;;;;;;;32.58;15.05;;;12.40;51.40;;;;;;5134822;28;20062;-65
2022/03/26 00:12:14;;;;;;;34.47;16.17;;;12.50;51.50;;;;;;5134759;28;20548;-66
2022/03/26 00:14:40;;;;;;;32.80;15.57;;;12.50;51.30;;;;;;5134755;28;20034;-66
2022/03/26 00:17:05;;;;;;;32.25;15.68;;;12.40;51.10;;;;;;5134327;28;20032;-66
2022/03/26 00:19:31;;;;;;;31.85;15.52;;;12.40;51.50;;;;;;5134796;28;20020;-65
2022/03/26 00:21:56;;;;;;;33.75;15.50;;;12.40;51.50;;;;;;5134507;28;20051;-65
2022/03/26 00:24:22;;;;;;;36.10;15.57;;;12.40;51.30;;;;;;5134518;28;20045;-66
2022/03/26 00:26:48;;;;;;;30.55;14.85;;;12.40;51.00;;;;;;5134517;28;20031;-65
2022/03/26 00:29:14;;;;;;;31.23;14.75;;;12.40;50.90;;;;;;5134430;28;20094;-65
2022/03/26 00:31:40;;;;;;;33.25;13.60;;;12.20;51.10;;;;;;5134436;28;20095;-65
2022/03/26 00:34:07;;;;;;;34.47;15.15;;;12.10;52.00;;;;;;5134518;28;20360;-64
2022/03/26 00:36:33;;;;;;;32.55;14.57;;;12.00;51.50;;;;;;5134286;28;20048;-65
2022/03/26 00:38:59;;;;;;;31.80;14.55;;;11.90;51.90;;;;;;5134332;28;20024;-65
2022/03/26 00:41:24;;;;;;;32.33;14.63;;;11.80;53.30;;;;;;5134313;28;20083;-66
2022/03/26 00:43:50;;;;;;;33.35;13.85;;;11.80;52.20;;;;;;5134248;28;20031;-65
2022/03/26 00:46:16;;;;;;;30.27;14.05;;;11.90;52.20;;;;;;5133300;28;20032;-65
2022/03/26 00:48:42;;;;;;;30.13;14.32;;;11.90;52.30;;;;;;5134221;28;20024;-65
2022/03/26 00:51:08;;;;;;;30.33;14.25;;;11.80;52.20;;;;;;5133140;28;20043;-65
2022/03/26 00:53:34;;;;;;;34.00;13.48;;;11.70;52.20;;;;;;5134062;28;20053;-65
2022/03/26 00:55:59;;;;;;;32.85;14.13;;;11.60;52.40;;;;;;5133960;28;20031;-65
2022/03/26 00:58:25;;;;;;;30.45;13.32;;;11.50;52.50;;;;;;5134036;28;20016;-65
2022/03/26 01:00:51;;;;;;;36.72;14.13;;;11.40;52.60;;;;;;5133508;28;20403;-66
2022/03/26 01:03:18;;;;;;;33.22;14.43;;;11.40;52.70;;;;;;5133979;28;20020;-66
2022/03/26 01:05:44;;;;;;;32.35;14.55;;;11.40;52.70;;;;;;5133983;28;20023;-65
2022/03/26 01:08:10;;;;;;;33.17;15.52;;;11.40;52.80;;;;;;5133901;28;20160;-65
2022/03/26 01:10:36;;;;;;;32.50;14.15;;;11.50;52.80;;;;;;5133861;28;20020;-65
2022/03/26 01:13:02;;;;;;;32.20;14.95;;;11.50;53.00;;;;;;5133916;28;20042;-66
2022/03/26 01:15:28;;;;;;;33.67;15.05;;;11.50;52.90;;;;;;5133769;28;20028;-65
2022/03/26 01:17:54;;;;;;;30.13;14.13;;;11.50;52.70;;;;;;5133846;28;20079;-65
2022/03/26 01:20:20;;;;;;;38.13;14.73;;;11.50;52.90;;;;;;5133622;28;20016;-65
2022/03/26 01:22:46;;;;;;;32.15;14.65;;;11.40;53.20;;;;;;5133617;28;20027;-65
2022/03/26 01:25:12;;;;;;;33.83;15.32;;;11.40;53.40;;;;;;5133731;28;20112;-65
2022/03/26 01:27:38;;;;;;;38.65;16.08;;;11.30;53.80;;;;;;5133671;28;20024;-65
2022/03/26 01:30:05;;;;;;;29.25;14.35;;;11.30;54.90;;;;;;5133703;28;20027;-64
2022/03/26 01:32:31;;;;;;;31.23;14.35;;;11.20;54.40;;;;;;5132809;28;20048;-65
2022/03/26 01:34:57;;;;;;;33.55;14.68;;;11.10;55.00;;;;;;5133611;28;20028;-64
2022/03/26 01:37:24;;;;;;;29.85;15.68;;;11.00;55.50;;;;;;5133533;28;20043;-65
2022/03/26 01:39:52;;;;;;;33.35;14.95;;;11.00;55.50;;;;;;5133604;28;20035;-65
2022/03/26 01:42:18;;;;;;;31.00;14.23;;;11.10;55.10;;;;;;5133613;28;20027;-66
2022/03/26 01:44:44;;;;;;;28.90;13.05;;;11.20;55.00;;;;;;5133587;28;20024;-65
2022/03/26 01:47:10;;;;;;;30.85;14.77;;;11.20;55.00;;;;;;5133525;28;20053;-65
2022/03/26 01:49:36;;;;;;;28.98;13.38;;;11.20;54.90;;;;;;5133615;28;20024;-65
2022/03/26 01:52:03;;;;;;;31.23;14.43;;;11.00;56.20;;;;;;5133498;28;20023;-65
2022/03/26 01:54:31;;;;;;;36.70;15.05;;;10.80;55.70;;;;;;5133492;28;20183;-65
2022/03/26 01:56:57;;;;;;;34.00;14.38;;;10.90;55.90;;;;;;5133402;28;20016;-65
2022/03/26 01:59:24;;;;;;;28.83;14.50;;;11.00;56.50;;;;;;5133420;28;20023;-66
2022/03/26 02:01:50;;;;;;;30.50;14.52;;;11.00;55.20;;;;;;5133410;28;20030;-65
2022/03/26 02:04:16;;;;;;;31.98;14.00;;;11.10;55.00;;;;;;5133377;28;20024;-65
2022/03/26 02:06:42;;;;;;;33.70;14.40;;;11.10;54.80;;;;;;5133480;28;20023;-65
2022/03/26 02:09:15;;;;;;;30.67;14.52;;;11.10;54.60;;;;;;5133311;28;20034;-65
2022/03/26 02:11:46;;;;;;;33.97;14.20;;;11.10;54.70;;;;;;5133378;28;20050;-65
2022/03/26 02:14:14;;;;;;;29.70;14.10;;;11.10;55.80;;;;;;5136799;28;20024;-65
2022/03/26 02:16:42;;;;;;;26.90;12.98;;;11.00;55.00;;;;;;5137048;27;20052;-64
2022/03/26 02:19:09;;;;;;;28.33;13.23;;;10.80;55.50;;;;;;5137101;28;20467;-66
2022/03/26 02:21:36;;;;;;;28.85;13.52;;;10.60;55.80;;;;;;5136823;28;20042;-66
2022/03/26 02:24:05;;;;;;;29.13;13.88;;;10.50;55.80;;;;;;5136989;28;20020;-66
2022/03/26 02:26:32;;;;;;;34.60;14.45;;;10.40;56.20;;;;;;5136913;28;20035;-64
2022/03/26 02:29:03;;;;;;;34.10;15.30;;;10.50;56.20;;;;;;5136763;28;20024;-65
2022/03/26 02:31:29;;;;;;;36.25;14.65;;;10.40;56.30;;;;;;5136940;28;20058;-65
2022/03/26 02:33:55;;;;;;;36.50;15.48;;;10.20;57.00;;;;;;5136742;28;20028;-65
2022/03/26 02:36:20;;;;;;;33.35;15.02;;;10.20;58.10;;;;;;5136655;28;20035;-65
2022/03/26 02:38:46;;;;;;;31.25;14.57;;;10.20;57.40;;;;;;5136674;28;20031;-65
2022/03/26 02:41:12;;;;;;;33.72;15.15;;;10.20;57.20;;;;;;5136585;28;20032;-65
2022/03/26 02:43:37;;;;;;;32.08;14.32;;;10.30;57.30;;;;;;5135480;28;20079;-65
2022/03/26 02:46:03;;;;;;;34.08;14.90;;;10.40;57.20;;;;;;5136544;28;20043;-65
2022/03/26 02:48:30;;;;;;;31.60;15.18;;;10.30;56.90;;;;;;5136466;28;20032;-66
2022/03/26 02:50:56;;;;;;;29.52;14.32;;;10.20;57.30;;;;;;5136502;28;20075;-65
2022/03/26 02:53:21;;;;;;;29.65;13.73;;;10.10;57.30;;;;;;5136412;28;20035;-65
2022/03/26 02:55:47;;;;;;;32.90;14.55;;;10.10;57.10;;;;;;5136272;28;20027;-65
2022/03/26 02:58:13;;;;;;;32.42;14.40;;;10.20;57.30;;;;;;5136286;28;20049;-65
2022/03/26 03:00:39;;;;;;;28.45;13.55;;;10.10;57.00;;;;;;5136290;28;20024;-65
2022/03/26 03:03:06;;;;;;;29.52;13.80;;;9.90;57.10;;;;;;5136204;28;20024;-65
2022/03/26 03:05:33;;;;;;;27.33;12.73;;;10.00;57.10;;;;;;5136170;28;20049;-64
2022/03/26 03:08:00;;;;;;;31.30;14.65;;;9.90;56.00;;;;;;5136210;28;20035;-65
2022/03/26 03:10:25;;;;;;;33.40;14.98;;;9.80;56.10;;;;;;5136088;28;20016;-65
2022/03/26 03:12:51;;;;;;;30.02;13.07;;;9.60;56.70;;;;;;5135972;28;20025;-65
2022/03/26 03:15:18;;;;;;;28.00;13.25;;;9.50;57.80;;;;;;5135942;28;20035;-65
2022/03/26 03:17:45;;;;;;;32.25;14.77;;;9.50;58.10;;;;;;5135838;28;20059;-64
2022/03/26 03:20:12;;;;;;;29.70;14.18;;;9.50;58.30;;;;;;5135692;28;20031;-65
2022/03/26 03:22:38;;;;;;;30.77;13.82;;;9.60;57.90;;;;;;5135874;28;20027;-65
2022/03/26 03:25:05;;;;;;;28.50;14.10;;;9.60;57.80;;;;;;5135388;28;20027;-65
2022/03/26 03:27:32;;;;;;;28.80;13.27;;;9.70;57.80;;;;;;5135630;28;20083;-65
2022/03/26 03:29:57;;;;;;;31.58;14.23;;;9.60;57.30;;;;;;5135690;28;20032;-66
2022/03/26 03:32:23;;;;;;;29.65;14.15;;;9.60;58.10;;;;;;5135613;28;20045;-65
2022/03/26 03:34:49;;;;;;;33.40;13.40;;;9.40;57.00;;;;;;5135546;28;20110;-66
2022/03/26 03:37:15;;;;;;;26.75;13.73;;;9.10;57.90;;;;;;5135480;28;20045;-64
2022/03/26 03:39:41;;;;;;;30.50;13.93;;;9.10;58.40;;;;;;5135445;28;20032;-66
2022/03/26 03:42:06;;;;;;;36.08;15.30;;;9.20;58.50;;;;;;5135540;28;20362;-65
2022/03/26 03:44:32;;;;;;;34.92;15.57;;;9.30;58.60;;;;;;5134344;28;20023;-65
2022/03/26 03:46:58;;;;;;;31.50;14.77;;;9.30;58.40;;;;;;5135331;28;20037;-64
2022/03/26 03:49:26;;;;;;;30.27;15.20;;;9.30;58.10;;;;;;5135346;28;20057;-64
2022/03/26 03:51:52;;;;;;;31.27;13.77;;;9.30;58.50;;;;;;5135237;28;20053;-65
2022/03/26 03:54:18;;;;;;;32.55;14.68;;;9.20;58.40;;;;;;5135202;28;20028;-65
2022/03/26 03:56:44;;;;;;;34.85;14.50;;;9.10;58.10;;;;;;5135011;28;20034;-66
2022/03/26 03:59:10;;;;;;;34.03;13.93;;;9.20;57.80;;;;;;5135052;28;20020;-66
2022/03/26 04:01:35;;;;;;;37.20;16.25;;;9.10;58.20;;;;;;5135016;28;20020;-66
2022/03/26 04:04:01;;;;;;;32.30;14.38;;;9.00;58.80;;;;;;5134989;28;20046;-66
2022/03/26 04:06:27;;;;;;;34.72;14.50;;;8.90;59.10;;;;;;5134962;28;20098;-65
2022/03/26 04:08:53;;;;;;;33.47;14.48;;;8.90;59.10;;;;;;5134877;28;20032;-65
2022/03/26 04:11:18;;;;;;;37.38;14.98;;;8.80;59.10;;;;;;5134828;28;20053;-65
2022/03/26 04:13:46;;;;;;;37.03;14.77;;;8.70;59.20;;;;;;5134892;28;20028;-66
2022/03/26 04:16:12;;;;;;;33.08;14.18;;;8.80;59.10;;;;;;5134692;28;20024;-66
2022/03/26 04:18:38;;;;;;;32.70;14.57;;;8.80;59.30;;;;;;5134858;28;20027;-65
2022/03/26 04:21:03;;;;;;;31.33;13.68;;;8.70;59.30;;;;;;5134433;28;20039;-65
2022/03/26 04:23:29;;;;;;;29.13;14.00;;;8.70;58.90;;;;;;5134599;28;20044;-64
2022/03/26 04:25:54;;;;;;;30.80;13.57;;;8.70;58.80;;;;;;5133740;28;20059;-65
2022/03/26 04:28:20;;;;;;;31.25;13.43;;;8.60;59.20;;;;;;5134487;28;20032;-66
2022/03/26 04:30:46;;;;;;;37.47;15.27;;;8.50;59.30;;;;;;5134607;28;20027;-65
2022/03/26 04:33:12;;;;;;;36.40;14.65;;;8.60;59.40;;;;;;5134621;28;20372;-66
2022/03/26 04:35:38;;;;;;;30.20;14.20;;;8.60;59.40;;;;;;5133620;28;20079;-65
2022/03/26 04:38:04;;;;;;;35.03;14.98;;;8.60;59.90;;;;;;5134368;28;20388;-65
2022/03/26 04:40:30;;;;;;;31.48;15.27;;;8.60;60.20;;;;;;5133168;28;20099;-65
2022/03/26 04:42:56;;;;;;;38.42;15.15;;;8.70;60.00;;;;;;5134321;28;20023;-66
2022/03/26 04:45:23;;;;;;;33.08;14.02;;;8.80;59.80;;;;;;5134275;27;20028;-66
2022/03/26 04:47:49;;;;;;;37.05;14.80;;;8.80;59.50;;;;;;5134263;28;20028;-65
2022/03/26 04:50:15;;;;;;;31.20;14.85;;;8.80;59.40;;;;;;5134218;28;20020;-64
2022/03/26 04:52:41;;;;;;;34.95;13.57;;;8.80;59.40;;;;;;5133167;28;20027;-65
2022/03/26 04:55:08;;;;;;;36.15;13.73;;;8.70;59.40;;;;;;5134144;28;20065;-65
2022/03/26 04:57:39;;;;;;;32.03;14.38;;;8.60;59.40;;;;;;5133999;28;20051;-65
2022/03/26 05:00:05;;;;;;;32.50;14.13;;;8.60;59.70;;;;;;5134036;28;20054;-65
2022/03/26 05:02:31;;;;;;;30.23;14.18;;;8.50;59.60;;;;;;5134093;28;20106;-66
2022/03/26 05:04:56;;;;;;;30.77;13.70;;;8.40;59.60;;;;;;5133934;28;20023;-65
2022/03/26 05:10:07;;;;;;;30.80;14.45;;;8.40;59.80;;;;;;5134162;28;20047;-66
2022/03/26 05:12:32;;;;;;;33.78;14.68;;;8.30;60.20;;;;;;5132834;28;20059;-66
2022/03/26 05:14:58;;;;;;;34.40;14.63;;;8.30;60.40;;;;;;5133954;28;20031;-65
2022/03/26 05:17:24;;;;;;;35.33;13.98;;;8.20;60.40;;;;;;5133726;28;20035;-65
2022/03/26 05:19:50;;;;;;;36.85;15.02;;;8.30;60.60;;;;;;5133908;28;20032;-65
2022/03/26 05:22:16;;;;;;;32.35;14.70;;;8.20;60.50;;;;;;5133609;28;20044;-65
2022/03/26 05:24:42;;;;;;;31.50;14.23;;;8.20;60.80;;;;;;5133755;28;20016;-65
2022/03/26 05:27:08;;;;;;;36.70;15.13;;;8.20;60.80;;;;;;5133728;28;20026;-65
2022/03/26 05:29:33;;;;;;;34.10;14.77;;;8.30;61.10;;;;;;5133636;28;20019;-65
2022/03/26 05:31:59;;;;;;;32.85;14.15;;;8.40;61.20;;;;;;5133677;28;20023;-66
2022/03/26 05:34:25;;;;;;;34.72;14.80;;;8.50;60.90;;;;;;5133665;28;20036;-66
2022/03/26 05:36:50;;;;;;;33.53;13.10;;;8.50;60.60;;;;;;5133542;28;20058;-65
2022/03/26 05:39:16;;;;;;;31.00;12.88;;;8.50;60.50;;;;;;5133606;28;20024;-65
2022/03/26 05:41:42;;;;;;;33.35;14.30;;;8.50;60.40;;;;;;5133575;28;20077;-66
2022/03/26 05:44:08;;;;;;;28.35;13.27;;;8.40;60.30;;;;;;5133618;28;20027;-65
2022/03/26 05:46:34;;;;;;;32.80;14.55;;;8.30;60.60;;;;;;5134470;28;20024;-65
2022/03/26 05:48:59;;;;;;;33.72;15.45;;;8.30;60.90;;;;;;5137607;28;20049;-65
2022/03/26 05:51:25;;;;;;;37.63;14.57;;;8.30;60.90;;;;;;5137639;28;20098;-66
2022/03/26 05:53:51;;;;;;;31.20;14.20;;;8.40;61.40;;;;;;5137560;28;20027;-65
2022/03/26 05:56:17;;;;;;;36.55;14.80;;;8.40;61.20;;;;;;5137424;28;20020;-66
2022/03/26 05:58:42;;;;;;;31.58;14.93;;;8.40;61.80;;;;;;5137516;28;20416;-65
2022/03/26 06:01:08;;;;;;;32.47;14.93;;;8.40;61.50;;;;;;5137403;28;20465;-66
2022/03/26 06:03:33;;;;;;;36.75;15.15;;;8.50;61.50;;;;;;5137350;28;20049;-65
2022/03/26 06:05:59;;;;;;;35.85;15.32;;;8.50;61.20;;;;;;5137335;28;20054;-65
2022/03/26 06:08:25;;;;;;;35.17;14.98;;;8.50;61.20;;;;;;5137246;28;20024;-64
2022/03/26 06:10:50;;;;;;;32.97;15.45;;;8.40;61.60;;;;;;5119176;28;20027;-66
2022/03/26 06:13:16;;;;;;;31.73;14.63;;;8.40;62.00;;;;;;5137182;28;20031;-65
2022/03/26 06:15:42;;;;;;;35.58;15.38;;;8.50;61.80;;;;;;5137018;28;20070;-66
2022/03/26 06:18:09;;;;;;;39.47;14.85;;;8.50;61.60;;;;;;5136126;28;20020;-66
2022/03/26 06:20:35;;;;;;;31.83;14.77;;;8.50;61.60;;;;;;5136792;28;20403;-65
2022/03/26 06:23:02;;;;;;;35.55;15.27;;;8.50;61.70;;;;;;5137062;28;20057;-67
2022/03/26 06:25:28;;;;;;;37.30;14.65;;;8.60;61.90;;;;;;5136997;27;20015;-65
2022/03/26 06:27:53;;;;;;;36.22;15.10;;;8.50;62.40;;;;;;5136849;28;20020;-67
2022/03/26 06:30:19;;;;;;;33.22;13.93;;;8.60;62.60;;;;;;5136856;28;20040;-64
2022/03/26 06:32:45;;;;;;;32.85;15.45;;;8.60;63.60;;;;;;5136720;28;20110;-65
2022/03/26 06:35:11;;;;;;;41.13;16.38;;;8.60;63.10;;;;;;5136576;28;20020;-64
2022/03/26 06:37:37;;;;;;;33.30;16.45;;;8.60;62.90;;;;;;5136388;28;20032;-65
2022/03/26 06:40:03;;;;;;;35.60;16.05;;;8.70;63.60;;;;;;5136646;28;20035;-66
2022/03/26 06:42:29;;;;;;;41.45;16.27;;;8.70;63.10;;;;;;5136518;28;20020;-66
2022/03/26 06:44:59;;;;;;;34.90;15.95;;;8.80;63.10;;;;;;5136459;28;20026;-66
2022/03/26 06:47:26;;;;;;;36.03;16.70;;;8.90;63.00;;;;;;5136437;28;20020;-65
2022/03/26 06:49:52;;;;;;;43.20;16.70;;;9.00;62.70;;;;;;5136383;28;20047;-65
2022/03/26 06:52:18;;;;;;;39.40;18.17;;;9.00;62.80;;;;;;5136248;28;20043;-65
2022/03/26 06:54:44;;;;;;;37.50;18.05;;;9.10;62.80;;;;;;5136097;28;20035;-65
2022/03/26 06:57:09;;;;;;;45.80;19.25;;;9.10;63.60;;;;;;5136019;28;20027;-64
2022/03/26 06:59:35;;;;;;;41.90;18.98;;;9.10;62.80;;;;;;5135245;28;20102;-65
2022/03/26 07:02:01;;;;;;;45.75;20.13;;;9.20;62.70;;;;;;5136209;28;20072;-66
2022/03/26 07:04:27;;;;;;;45.47;20.98;;;9.20;63.00;;;;;;5136110;28;20020;-65
2022/03/26 07:06:52;;;;;;;50.03;21.05;;;9.30;63.00;;;;;;5135979;28;20028;-66
2022/03/26 07:09:18;;;;;;;45.75;20.13;;;9.30;62.90;;;;;;5135935;28;20087;-66
2022/03/26 07:11:43;;;;;;;53.22;21.88;;;9.40;62.90;;;;;;5135963;28;20058;-66
2022/03/26 07:14:09;;;;;;;48.67;20.60;;;9.50;62.80;;;;;;5135940;28;20046;-66
2022/03/26 07:16:35;;;;;;;44.70;19.77;;;9.50;62.80;;;;;;5135684;28;20088;-67
2022/03/26 07:19:00;;;;;;;42.92;20.33;;;9.60;62.80;;;;;;5135771;28;20081;-66
2022/03/26 07:21:26;;;;;;;42.30;18.70;;;9.70;62.90;;;;;;5135550;28;20113;-66
2022/03/26 07:23:52;;;;;;;44.72;19.42;;;9.70;62.80;;;;;;5135684;27;20016;-66
2022/03/26 07:26:18;;;;;;;44.97;19.58;;;9.80;62.70;;;;;;5135572;28;20024;-65
2022/03/26 07:28:44;;;;;;;45.40;19.40;;;9.90;62.60;;;;;;5135465;28;20020;-67
2022/03/26 07:31:09;;;;;;;40.78;18.58;;;10.00;62.40;;;;;;5135581;28;20053;-67
2022/03/26 07:33:35;;;;;;;48.15;19.60;;;10.20;62.40;;;;;;5134525;28;20035;-67
2022/03/26 07:36:01;;;;;;;39.90;18.55;;;10.30;62.40;;;;;;5135385;28;20032;-65
2022/03/26 07:38:26;;;;;;;43.58;18.75;;;10.30;62.20;;;;;;5135351;28;20031;-65
2022/03/26 07:40:53;;;;;;;41.75;18.42;;;10.40;62.20;;;;;;5135334;28;20043;-65
2022/03/26 07:43:18;;;;;;;45.38;17.60;;;10.60;62.10;;;;;;5135291;28;20081;-65
2022/03/26 07:45:44;;;;;;;48.13;17.92;;;10.60;62.00;;;;;;5135355;28;20016;-65
2022/03/26 07:48:10;;;;;;;52.10;18.23;;;10.80;61.90;;;;;;5135301;28;20020;-65
2022/03/26 07:50:36;;;;;;;40.63;16.80;;;10.90;61.70;;;;;;5135174;28;20012;-64
2022/03/26 07:53:02;;;;;;;35.22;15.82;;;11.00;61.50;;;;;;5135134;28;20028;-64
2022/03/26 07:55:27;;;;;;;32.15;14.18;;;11.10;61.10;;;;;;5135026;28;20019;-64
2022/03/26 07:57:53;;;;;;;33.65;16.00;;;11.20;60.90;;;;;;5134960;28;20067;-65
2022/03/26 08:00:20;;;;;;;40.97;16.60;;;11.30;60.70;;;;;;5134946;28;20026;-65
2022/03/26 08:02:46;;;;;;;32.85;15.35;;;11.40;60.30;;;;;;5133866;28;20019;-64
2022/03/26 08:05:12;;;;;;;36.67;15.85;;;11.50;60.20;;;;;;5134823;28;20362;-65
2022/03/26 08:07:38;;;;;;;35.17;14.95;;;11.60;60.00;;;;;;5134707;28;20028;-65
2022/03/26 08:10:04;;;;;;;34.85;15.27;;;11.70;59.80;;;;;;5134817;28;20028;-65
2022/03/26 08:12:29;;;;;;;36.53;14.80;;;11.80;59.40;;;;;;5134673;28;20118;-65
2022/03/26 08:14:55;;;;;;;34.22;14.45;;;11.90;59.40;;;;;;5134631;28;20035;-64
2022/03/26 08:17:21;;;;;;;32.97;15.00;;;12.00;59.00;;;;;;5134479;28;20031;-64
2022/03/26 08:19:47;;;;;;;36.35;14.65;;;12.20;58.70;;;;;;5134507;28;20035;-65
2022/03/26 08:22:12;;;;;;;30.27;13.80;;;12.30;58.60;;;;;;5134460;28;20043;-66
2022/03/26 08:24:38;;;;;;;29.15;12.73;;;12.40;58.60;;;;;;5134654;28;20077;-66
2022/03/26 08:27:04;;;;;;;35.03;14.00;;;12.50;58.00;;;;;;5134621;28;20028;-66
2022/03/26 08:29:29;;;;;;;35.53;14.23;;;12.70;56.90;;;;;;5134447;28;20020;-66
2022/03/26 08:31:55;;;;;;;35.33;14.40;;;12.80;56.50;;;;;;5133356;28;20123;-66
2022/03/26 08:34:21;;;;;;;31.48;14.38;;;12.90;56.70;;;;;;5134356;28;20091;-66
2022/03/26 08:36:46;;;;;;;29.90;14.43;;;13.00;56.80;;;;;;5134122;28;20032;-66
2022/03/26 08:39:12;;;;;;;36.97;14.35;;;13.20;56.40;;;;;;5134137;28;20035;-65
2022/03/26 08:41:38;;;;;;;32.85;14.25;;;13.30;55.80;;;;;;5134130;28;20027;-66
2022/03/26 08:44:03;;;;;;;33.92;14.75;;;13.50;55.20;;;;;;5133096;28;20032;-64
2022/03/26 08:46:30;;;;;;;33.15;14.38;;;13.60;54.80;;;;;;5134083;28;20052;-64
2022/03/26 08:48:58;;;;;;;34.00;15.25;;;13.70;54.60;;;;;;5134049;28;20028;-64
2022/03/26 08:51:23;;;;;;;35.63;15.43;;;13.90;54.30;;;;;;5134051;28;20035;-66
2022/03/26 08:53:49;;;;;;;33.58;14.63;;;14.00;53.80;;;;;;5133975;28;20027;-65
2022/03/26 08:56:15;;;;;;;29.05;13.90;;;14.10;52.80;;;;;;5133830;28;20038;-65
2022/03/26 08:58:40;;;;;;;36.78;14.05;;;14.20;52.70;;;;;;5133823;28;20036;-65
2022/03/26 09:01:07;;;;;;;31.02;13.45;;;14.30;52.40;;;;;;5133763;28;20083;-66
2022/03/26 09:03:37;;;;;;;34.67;15.88;;;14.50;51.90;;;;;;5133888;28;20019;-65
2022/03/26 09:06:06;;;;;;;33.53;13.60;;;14.60;51.70;;;;;;5133938;28;20031;-65
2022/03/26 09:08:32;;;;;;;31.70;13.93;;;14.70;51.20;;;;;;5133738;28;20445;-66
2022/03/26 09:10:57;;;;;;;32.85;14.75;;;14.80;51.10;;;;;;5133668;28;20032;-66
2022/03/26 09:13:23;;;;;;;29.92;13.63;;;15.00;51.00;;;;;;5133777;28;20046;-66
2022/03/26 09:15:49;;;;;;;31.48;13.50;;;15.10;50.50;;;;;;5133608;28;20049;-66
2022/03/26 09:18:15;;;;;;;32.78;13.70;;;15.20;49.80;;;;;;5133688;28;20012;-66
2022/03/26 09:20:41;;;;;;;30.63;12.35;;;15.30;49.40;;;;;;5133226;28;20044;-66
2022/03/26 09:23:06;;;;;;;27.88;11.60;;;15.50;49.10;;;;;;5133257;28;20050;-66
2022/03/26 09:25:34;;;;;;;29.35;10.63;;;15.50;48.40;;;;;;5133756;28;20024;-66
2022/03/26 09:27:59;;;;;;;22.00;11.43;;;15.60;46.80;;;;;;5133649;28;20030;-66
2022/03/26 09:30:25;;;;;;;23.52;9.90;;;15.60;46.40;;;;;;5133645;28;20028;-66
2022/03/26 09:32:50;;;;;;;23.88;11.52;;;15.60;46.10;;;;;;5133545;28;20028;-65
2022/03/26 09:35:16;;;;;;;22.95;11.23;;;15.70;46.00;;;;;;5133483;28;20040;-66
2022/03/26 09:37:43;;;;;;;23.70;11.52;;;15.80;45.90;;;;;;5133530;28;20047;-66
2022/03/26 09:40:10;;;;;;;26.27;12.57;;;15.90;45.50;;;;;;5133421;28;20046;-65
2022/03/26 09:42:38;;;;;;;25.67;11.35;;;16.00;44.90;;;;;;5133552;28;20088;-66
2022/03/26 09:45:06;;;;;;;26.63;12.25;;;16.10;44.40;;;;;;5133429;28;20020;-64
2022/03/26 09:47:33;;;;;;;35.97;13.82;;;16.10;44.60;;;;;;5132237;28;20062;-65
2022/03/26 09:50:00;;;;;;;34.03;13.35;;;16.20;44.40;;;;;;5133322;28;20024;-64
2022/03/26 09:52:26;;;;;;;35.92;14.20;;;16.30;43.70;;;;;;5132303;28;20035;-65
2022/03/26 09:54:52;;;;;;;41.85;15.25;;;16.20;44.60;;;;;;5133217;28;20043;-65
2022/03/26 09:57:18;;;;;;;38.42;14.88;;;16.40;43.60;;;;;;5133278;28;20027;-65
2022/03/26 09:59:43;;;;;;;45.22;15.55;;;16.40;43.90;;;;;;5133212;28;20084;-64
2022/03/26 10:02:09;;;;;;;36.97;15.40;;;16.50;43.50;;;;;;5133173;28;20015;-65
2022/03/26 10:04:41;;;;;;;31.23;12.00;;;16.60;43.80;;;;;;5133209;28;20038;-64
2022/03/26 10:07:08;;;;;;;29.10;11.70;;;16.60;43.80;;;;;;5133299;28;20031;-64
2022/03/26 10:09:40;;;;;;;21.00;10.25;;;16.70;44.60;;;;;;5133173;28;20024;-64
2022/03/26 10:12:17;;;;;;;23.80;11.52;;;16.90;45.20;;;;;;5133225;28;20023;-64
2022/03/26 10:14:54;;;;;;;18.65;9.98;;;17.00;45.90;;;;;;5133201;28;20122;-65
2022/03/26 10:17:27;;;;;;;21.88;10.68;;;17.10;46.60;;;;;;5133100;28;20032;-64
2022/03/26 10:19:57;;;;;;;21.95;10.93;;;17.20;45.10;;;;;;5133060;28;20032;-64
2022/03/26 10:22:42;;;;;;;21.98;11.02;;;17.20;46.40;;;;;;5132813;28;20056;-65
2022/03/26 10:25:24;;;;;;;22.02;11.05;;;17.30;47.10;;;;;;5133103;28;20023;-64
2022/03/26 10:27:56;;;;;;;28.08;12.65;;;17.40;46.10;;;;;;5133078;28;20058;-64
2022/03/26 10:33:23;;;;;;;23.30;11.25;;;17.30;46.40;;;;;;5133407;28;20039;-65
2022/03/26 10:35:59;;;;;;;22.13;10.70;;;17.40;46.50;;;;;;5136698;28;20080;-65
2022/03/26 10:38:33;;;;;;;19.52;10.73;;;17.40;47.10;;;;;;5136742;27;20019;-65
2022/03/26 10:41:00;;;;;;;20.42;10.52;;;17.50;47.10;;;;;;5136729;28;20020;-65
2022/03/26 10:43:27;;;;;;;20.90;10.68;;;17.70;47.80;;;;;;5136618;28;20087;-65
2022/03/26 10:45:55;;;;;;;18.08;10.35;;;17.80;47.90;;;;;;5136734;28;20019;-65
2022/03/26 10:48:28;;;;;;;22.75;12.55;;;17.80;46.90;;;;;;5136554;28;20015;-65
2022/03/26 10:51:05;;;;;;;24.25;12.13;;;17.90;47.00;;;;;;5136414;28;20024;-66
2022/03/26 10:53:39;;;;;;;21.92;10.70;;;17.90;46.10;;;;;;5136583;28;20048;-66
2022/03/26 10:56:07;;;;;;;21.73;10.98;;;17.90;46.80;;;;;;5136285;27;20031;-65
2022/03/26 10:58:34;;;;;;;17.52;10.32;;;17.90;47.20;;;;;;5136354;28;20070;-65
2022/03/26 11:01:00;;;;;;;17.50;10.48;;;18.10;47.40;;;;;;5136358;28;20047;-65
2022/03/26 11:03:26;;;;;;;21.75;9.90;;;18.30;46.80;;;;;;5136416;28;20028;-65
2022/03/26 11:05:54;;;;;;;17.90;9.57;;;18.40;46.60;;;;;;5136221;28;20052;-64
2022/03/26 11:08:22;;;;;;;16.63;8.77;;;18.50;46.40;;;;;;5136179;28;20091;-64
2022/03/26 11:10:50;;;;;;;13.25;8.60;;;18.60;45.90;;;;;;5136097;28;20023;-65
2022/03/26 11:13:18;;;;;;;13.57;7.72;;;18.60;45.50;;;;;;5136027;28;20023;-65
2022/03/26 11:15:49;;;;;;;15.52;7.75;;;18.60;45.10;;;;;;5135946;28;20107;-65
2022/03/26 11:18:39;;;;;;;14.93;8.55;;;18.70;45.40;;;;;;5136003;27;20012;-65
2022/03/26 11:21:26;;;;;;;14.25;7.43;;;18.90;44.60;;;;;;5135728;28;20039;-65
2022/03/26 11:24:00;;;;;;;12.60;7.40;;;18.90;44.50;;;;;;5135849;28;20024;-65
2022/03/26 11:26:59;;;;;;;12.13;8.00;;;19.00;44.30;;;;;;5135887;28;20028;-65
2022/03/26 11:29:27;;;;;;;12.82;7.43;;;19.10;43.90;;;;;;5109535;28;20069;-65
2022/03/26 11:32:14;;;;;;;15.52;8.48;;;19.00;43.30;;;;;;5135630;28;20023;-65
2022/03/26 11:34:40;;;;;;;15.68;8.13;;;19.10;43.90;;;;;;5135589;28;20031;-65
2022/03/26 11:37:11;;;;;;;15.20;8.48;;;19.20;44.10;;;;;;5135500;28;20035;-65
2022/03/26 11:39:45;;;;;;;14.10;7.55;;;19.30;43.30;;;;;;5135528;28;20022;-65
2022/03/26 11:42:11;;;;;;;13.13;7.78;;;19.20;42.20;;;;;;5135298;28;20063;-64
2022/03/26 11:44:44;;;;;;;14.50;8.18;;;19.30;42.70;;;;;;5135132;28;20020;-64
2022/03/26 11:53:09;;;;;;;13.07;6.25;;;19.30;42.30;;;;;;5135414;28;20031;-64
2022/03/26 11:55:42;;;;;;;12.85;6.50;;;19.40;42.20;;;;;;5135224;28;20023;-64
2022/03/26 11:58:13;;;;;;;12.82;7.43;;;19.60;42.80;;;;;;5135115;28;20047;-64
2022/03/26 12:01:01;;;;;;;13.50;6.03;;;19.60;41.80;;;;;;5135209;28;20015;-64
2022/03/26 12:03:29;;;;;;;12.15;7.32;;;19.80;41.10;;;;;;5124843;28;20035;-65
2022/03/26 12:08:52;;;;;;;13.05;6.38;;;19.90;40.80;;;;;;5135170;28;20037;-65
2022/03/26 12:11:21;;;;;;;11.48;6.75;;;19.90;40.00;;;;;;5134987;28;20020;-65
2022/03/26 12:14:05;;;;;;;9.80;5.28;;;20.00;40.20;;;;;;5134864;28;20046;-65
2022/03/26 12:16:49;;;;;;;6.90;4.70;;;20.10;39.50;;;;;;5134785;28;20024;-65
2022/03/26 12:19:38;;;;;;;10.43;4.28;;;20.20;38.80;;;;;;5134730;28;20071;-65
2022/03/26 12:22:21;;;;;;;9.35;4.60;;;20.20;38.50;;;;;;5134431;28;20042;-65
2022/03/26 12:24:48;;;;;;;8.63;5.25;;;20.20;38.70;;;;;;5134666;28;20047;-64
2022/03/26 12:27:15;;;;;;;10.50;5.30;;;20.20;38.90;;;;;;5134609;28;20027;-64
2022/03/26 12:29:41;;;;;;;10.88;5.78;;;20.20;39.50;;;;;;5134502;28;20024;-64
2022/03/26 12:32:08;;;;;;;11.10;6.30;;;20.20;38.80;;;;;;5134512;28;20036;-64
2022/03/26 12:34:33;;;;;;;8.93;4.95;;;20.20;39.30;;;;;;5134510;28;20361;-64
2022/03/26 12:37:03;;;;;;;8.95;5.47;;;20.20;38.60;;;;;;5133410;28;20034;-65
2022/03/26 12:39:29;;;;;;;10.35;6.03;;;20.20;38.50;;;;;;5134344;28;20020;-65
2022/03/26 12:41:56;;;;;;;14.73;6.57;;;20.30;40.00;;;;;;5134344;28;20054;-65
2022/03/26 12:44:22;;;;;;;10.25;6.40;;;20.30;38.90;;;;;;5134310;28;20083;-65